createdAt,value
2018-01-06T00:04:35.642Z,9.00
2018-01-06T00:15:21.800Z,9.63
2018-01-06T00:25:45.539Z,8.80
2018-01-06T00:30:48.091Z,7.07
2018-01-06T00:35:50.634Z,8.63
2018-01-06T00:40:54.014Z,6.90
2018-01-06T00:45:57.351Z,10.03
2018-01-06T00:51:00.674Z,7.90
2018-01-06T00:56:03.968Z,11.13
2018-01-06T01:01:06.514Z,16.80
2018-01-06T01:06:09.053Z,14.67
2018-01-06T01:11:15.747Z,10.47
2018-01-06T01:16:36.592Z,19.17
2018-01-06T01:21:39.253Z,18.40
2018-01-06T01:26:41.785Z,18.97
2018-01-06T01:31:44.359Z,17.33
2018-01-06T01:36:46.945Z,14.50
2018-01-06T01:41:49.482Z,17.10
2018-01-06T01:46:52.798Z,18.13
2018-01-06T01:51:56.121Z,12.03
2018-01-06T01:56:59.451Z,17.37
2018-01-06T02:02:02.018Z,19.83
2018-01-06T02:07:04.584Z,12.90
2018-01-06T02:12:07.635Z,16.37
2018-01-06T02:17:10.203Z,25.53
2018-01-06T02:22:12.747Z,16.80
2018-01-06T02:27:15.311Z,22.23
2018-01-06T02:32:17.868Z,14.67
2018-01-06T02:37:20.414Z,14.50
2018-01-06T02:42:22.987Z,13.50
2018-01-06T02:47:25.559Z,14.97
2018-01-06T02:52:28.130Z,22.77
2018-01-06T02:57:30.692Z,19.60
2018-01-06T03:02:33.277Z,20.03
2018-01-06T03:07:35.851Z,16.40
2018-01-06T03:12:38.411Z,15.87
2018-01-06T03:17:40.962Z,18.43
2018-01-06T03:22:43.521Z,20.43
2018-01-06T03:27:46.073Z,21.17
2018-01-06T03:32:48.632Z,30.23
2018-01-06T03:37:51.939Z,22.20
2018-01-06T03:42:54.523Z,30.77
2018-01-06T03:47:57.124Z,21.83
2018-01-06T03:52:59.706Z,23.27
2018-01-06T03:58:02.258Z,22.70
2018-01-06T04:03:04.844Z,23.17
2018-01-06T04:08:08.165Z,23.63
2018-01-06T04:13:11.494Z,18.90
2018-01-06T04:18:14.049Z,24.20
2018-01-06T04:23:16.614Z,19.23
2018-01-06T04:28:19.179Z,21.60
2018-01-06T04:33:22.177Z,24.27
2018-01-06T04:38:24.722Z,19.73
2018-01-06T04:43:27.291Z,23.50
2018-01-06T04:48:29.860Z,22.30
2018-01-06T04:53:32.434Z,19.20
2018-01-06T04:58:34.991Z,18.43
2018-01-06T05:08:57.735Z,17.00
2018-01-06T05:14:00.295Z,13.30
2018-01-06T05:19:02.855Z,14.67
2018-01-06T05:24:05.418Z,15.73
2018-01-06T05:29:07.974Z,15.07
2018-01-06T05:34:10.520Z,13.47
2018-01-06T05:39:13.083Z,14.53
2018-01-06T05:44:16.098Z,29.83
2018-01-06T05:49:18.652Z,20.63
2018-01-06T05:54:21.210Z,18.93
2018-01-06T05:59:23.781Z,15.97
2018-01-06T06:04:40.288Z,20.33
2018-01-06T06:09:57.719Z,16.73
2018-01-06T06:15:10.142Z,13.10
2018-01-06T06:25:28.710Z,14.00
2018-01-06T06:30:31.246Z,17.60
2018-01-06T06:35:41.695Z,18.60
2018-01-06T06:40:53.629Z,15.00
2018-01-06T06:51:15.716Z,13.97
2018-01-06T06:56:24.874Z,9.50
2018-01-06T07:07:02.150Z,10.93
2018-01-06T07:12:04.796Z,13.90
2018-01-06T07:17:07.351Z,15.10
2018-01-06T07:22:09.907Z,11.17
2018-01-06T07:27:13.231Z,13.17
2018-01-06T07:32:45.629Z,14.93
2018-01-06T07:37:48.836Z,14.07
2018-01-06T07:42:51.402Z,15.33
2018-01-06T07:47:53.954Z,16.37
2018-01-06T07:52:56.511Z,21.57
2018-01-06T08:03:30.845Z,22.70
2018-01-06T08:08:46.324Z,25.17
2018-01-06T08:14:00.589Z,18.67
2018-01-06T08:19:17.976Z,23.90
2018-01-06T08:29:53.619Z,20.87
2018-01-06T08:35:12.795Z,21.57
2018-01-06T08:45:35.155Z,24.30
2018-01-06T08:51:11.468Z,19.90
2018-01-06T09:12:24.200Z,27.03
2018-01-06T09:23:03.073Z,27.97
2018-01-06T09:28:15.690Z,25.20
2018-01-06T09:33:35.270Z,31.17
2018-01-06T09:38:51.742Z,22.37
2018-01-06T09:44:09.994Z,20.07
2018-01-06T09:49:30.089Z,31.17
2018-01-06T09:54:57.749Z,23.47
2018-01-06T10:11:07.088Z,25.50
2018-01-06T10:16:18.209Z,29.50
2018-01-06T10:26:49.146Z,37.23
2018-01-06T10:32:06.262Z,34.23
2018-01-06T10:37:24.858Z,26.93
2018-01-06T10:42:35.486Z,28.70
2018-01-06T10:47:46.656Z,26.17
2018-01-06T11:15:30.563Z,29.87
2018-01-06T11:20:43.685Z,26.00
2018-01-06T11:26:05.519Z,22.80
2018-01-06T11:31:17.851Z,30.23
2018-01-06T11:52:56.947Z,29.70
2018-01-06T11:58:12.896Z,24.00
2018-01-06T12:03:26.703Z,26.80
2018-01-06T12:08:40.028Z,21.77
2018-01-06T12:19:19.263Z,23.60
2018-01-06T12:35:24.783Z,22.67
2018-01-06T12:46:06.162Z,29.47
2018-01-06T12:51:28.909Z,33.27
2018-01-06T13:13:02.637Z,35.33
2018-01-06T13:18:23.739Z,29.60
2018-01-06T13:23:37.054Z,24.67
2018-01-06T13:28:46.976Z,31.70
2018-01-06T13:34:01.605Z,31.47
2018-01-06T13:39:30.276Z,26.00
2018-01-06T13:44:44.225Z,27.30
2018-01-06T13:55:15.908Z,36.10
2018-01-06T14:00:30.630Z,30.87
2018-01-06T14:05:51.668Z,36.00
2018-01-06T14:11:19.290Z,33.83
2018-01-06T14:47:50.797Z,29.50
2018-01-06T14:53:17.338Z,27.83
2018-01-06T14:58:20.193Z,34.80
2018-01-06T15:31:16.299Z,44.50
2018-01-06T15:36:18.979Z,34.90
2018-01-06T15:41:21.569Z,27.57
2018-01-06T15:46:24.169Z,52.47
2018-01-06T15:51:26.762Z,23.93
2018-01-06T15:56:29.362Z,21.27
2018-01-06T16:01:32.693Z,23.33
2018-01-06T16:06:35.314Z,20.90
2018-01-06T16:11:38.669Z,17.23
2018-01-06T16:16:41.356Z,17.93
2018-01-06T16:21:43.980Z,18.53
2018-01-06T16:26:46.551Z,16.83
2018-01-06T16:31:49.194Z,20.00
2018-01-06T16:36:51.747Z,22.00
2018-01-06T16:41:54.323Z,21.40
2018-01-06T16:46:56.928Z,26.60
2018-01-06T16:52:00.292Z,19.87
2018-01-06T16:57:02.919Z,14.30
2018-01-06T17:02:05.536Z,14.40
2018-01-06T17:07:08.132Z,17.00
2018-01-06T17:12:10.742Z,19.87
2018-01-06T17:17:13.347Z,29.23
2018-01-06T17:22:15.981Z,15.10
2018-01-06T17:27:18.522Z,12.83
2018-01-06T17:32:21.109Z,16.03
2018-01-06T17:37:23.750Z,14.90
2018-01-06T17:42:27.134Z,11.47
2018-01-06T17:47:29.791Z,12.93
2018-01-06T17:52:32.389Z,13.23
2018-01-06T17:57:35.748Z,16.43
2018-01-06T18:02:38.364Z,14.13
2018-01-06T18:07:41.090Z,15.13
2018-01-06T18:12:43.678Z,16.37
2018-01-06T18:17:46.289Z,12.60
2018-01-06T18:22:48.879Z,13.57
2018-01-06T18:27:51.491Z,12.90
2018-01-06T18:32:54.113Z,15.30
2018-01-06T18:37:56.751Z,12.37
2018-01-06T18:42:59.412Z,21.20
2018-01-06T18:48:02.059Z,23.10
2018-01-06T18:53:04.700Z,14.33
2018-01-06T18:58:07.257Z,13.80
2018-01-06T19:03:09.826Z,11.70
2018-01-06T19:08:12.482Z,12.53
2018-01-06T19:13:15.135Z,14.23
2018-01-06T19:18:17.970Z,12.97
2018-01-06T19:23:20.486Z,12.87
2018-01-06T19:28:23.068Z,14.67
2018-01-06T19:33:25.702Z,13.47
2018-01-06T19:38:28.298Z,16.43
2018-01-06T19:43:30.859Z,13.90
2018-01-06T19:48:33.477Z,16.40
2018-01-06T19:53:36.058Z,24.57
2018-01-06T19:58:38.636Z,29.77
2018-01-06T20:03:42.016Z,19.30
2018-01-06T20:08:44.624Z,18.53
2018-01-06T20:13:47.240Z,27.00
2018-01-06T20:18:49.883Z,33.97
2018-01-06T20:23:52.463Z,24.03
2018-01-06T20:28:55.855Z,23.37
2018-01-06T20:33:58.438Z,38.27
2018-01-06T20:39:01.038Z,25.63
2018-01-06T20:44:03.643Z,32.83
2018-01-06T20:49:06.283Z,33.77
2018-01-06T20:54:09.653Z,24.67
2018-01-06T20:59:12.260Z,31.23
2018-01-06T21:04:14.838Z,31.40
2018-01-06T21:09:17.431Z,41.37
2018-01-06T21:14:20.037Z,28.87
2018-01-06T21:19:23.404Z,32.77
2018-01-06T21:24:25.959Z,25.47
2018-01-06T21:29:28.554Z,20.50
2018-01-06T21:34:31.148Z,25.33
2018-01-06T21:39:33.715Z,34.00
2018-01-06T21:44:37.078Z,29.43
2018-01-06T21:49:39.705Z,23.20
2018-01-06T21:54:42.354Z,26.20
2018-01-06T21:59:44.921Z,26.80
2018-01-06T22:04:47.563Z,38.87
2018-01-06T22:09:50.130Z,24.30
2018-01-06T22:14:52.742Z,28.73
2018-01-06T22:19:55.373Z,17.30
2018-01-06T22:24:57.951Z,26.23
2018-01-06T22:30:01.275Z,15.40
2018-01-06T22:35:03.844Z,26.03
2018-01-06T22:40:06.428Z,18.20
2018-01-06T22:45:09.011Z,27.00
2018-01-06T22:50:11.603Z,17.90
2018-01-06T22:55:14.222Z,19.47
2018-01-06T23:00:16.814Z,15.93
2018-01-06T23:05:19.374Z,18.40
2018-01-06T23:10:22.728Z,16.27
2018-01-06T23:15:25.321Z,16.23
2018-01-06T23:20:27.918Z,22.63
2018-01-06T23:25:30.538Z,6.33
2018-01-06T23:30:33.123Z,12.80
2018-01-06T23:35:35.785Z,11.07
2018-01-06T23:40:38.389Z,13.63
2018-01-06T23:45:41.003Z,16.90
2018-01-06T23:50:44.370Z,12.53
2018-01-06T23:55:47.014Z,13.10
